Time;durP1;ratioP1;P1;durP2;ratioP2;P2;SDS_P1;SDS_P2;PMS_P1;PMS_P2;Temp;Humidity;BMP_temperature;BMP_pressure;BME280_temperature;BME280_humidity;BME280_pressure;Samples;Min_cycle;Max_cycle;Signal;HPM_P1;HPM_P2
2023/06/27 00:00:06;;;;;;;2.67;1.08;;;;;;;18.36;100.00;99063.84;5022681;28;20033;-67
2023/06/27 00:02:34;;;;;;;5.50;1.60;;;;;;;18.34;100.00;99061.38;5042815;28;20025;-68
2023/06/27 00:05:00;;;;;;;7.30;1.40;;;;;;;18.28;100.00;99062.34;5024760;28;20118;-68
2023/06/27 00:07:27;;;;;;;4.90;1.30;;;;;;;18.27;100.00;99070.84;5030384;28;20385;-67
2023/06/27 00:09:53;;;;;;;3.22;1.00;;;;;;;18.20;100.00;99061.94;5047682;28;20025;-67
2023/06/27 00:12:19;;;;;;;4.65;1.23;;;;;;;18.22;100.00;99068.81;5032047;28;20032;-68
2023/06/27 00:14:44;;;;;;;6.70;1.30;;;;;;;18.20;100.00;99072.88;5028373;28;20401;-68
2023/06/27 00:17:12;;;;;;;4.47;1.40;;;;;;;18.07;100.00;99068.56;5051263;28;20030;-67
2023/06/27 00:19:39;;;;;;;3.25;1.35;;;;;;;18.01;100.00;99072.28;5032681;28;20037;-68
2023/06/27 00:22:09;;;;;;;6.65;1.33;;;;;;;17.99;100.00;99075.25;5042497;28;20057;-68
2023/06/27 00:24:38;;;;;;;4.78;1.25;;;;;;;17.95;100.00;99068.63;5035503;28;20026;-67
2023/06/27 00:27:04;;;;;;;5.78;0.90;;;;;;;17.89;100.00;99072.31;5034241;28;20041;-67
2023/06/27 00:29:30;;;;;;;2.78;1.17;;;;;;;17.84;100.00;99073.06;5028711;28;20480;-68
2023/06/27 00:31:56;;;;;;;3.15;1.20;;;;;;;17.79;100.00;99072.09;5043020;28;20057;-68
2023/06/27 00:34:21;;;;;;;5.60;1.00;;;;;;;17.83;100.00;99089.72;5049913;28;20027;-68
2023/06/27 00:36:47;;;;;;;2.63;0.80;;;;;;;17.80;100.00;99085.56;5051027;28;20025;-68
2023/06/27 00:39:12;;;;;;;7.90;1.20;;;;;;;17.78;100.00;99086.84;5025448;28;20392;-68
2023/06/27 00:41:37;;;;;;;4.50;1.38;;;;;;;17.75;100.00;99093.66;5028538;28;20030;-68
2023/06/27 00:44:06;;;;;;;4.40;1.20;;;;;;;17.75;100.00;99089.00;5052324;28;20029;-68
2023/06/27 00:46:40;;;;;;;3.28;1.20;;;;;;;17.73;100.00;99093.88;5048671;28;20021;-68
2023/06/27 00:49:08;;;;;;;5.18;1.00;;;;;;;17.74;100.00;99090.09;5026509;28;20458;-67
2023/06/27 00:51:34;;;;;;;1.98;1.00;;;;;;;17.78;100.00;99098.63;5031309;28;20045;-67
2023/06/27 00:53:59;;;;;;;4.88;1.20;;;;;;;17.81;100.00;99097.34;5034779;28;20068;-68
2023/06/27 00:56:26;;;;;;;2.30;1.02;;;;;;;17.84;100.00;99096.84;5037390;28;20463;-68
2023/06/27 00:58:54;;;;;;;3.25;1.10;;;;;;;17.90;100.00;99093.16;5033535;28;20029;-68
2023/06/27 01:01:19;;;;;;;4.97;1.10;;;;;;;17.92;100.00;99093.72;5030503;28;20033;-65
2023/06/27 01:03:45;;;;;;;3.65;0.90;;;;;;;17.95;100.00;99104.22;5035073;28;20044;-62
2023/06/27 01:06:25;;;;;;;7.25;1.05;;;;;;;18.00;100.00;99098.84;5046833;28;20472;-64
2023/06/27 01:08:59;;;;;;;2.95;1.20;;;;;;;18.05;100.00;99098.06;5036304;28;20030;-62
2023/06/27 01:11:29;;;;;;;4.50;1.52;;;;;;;17.96;100.00;99103.13;5022210;28;20033;-62
2023/06/27 01:13:56;;;;;;;4.85;1.27;;;;;;;17.83;100.00;99097.94;5050231;28;20033;-62
2023/06/27 01:16:25;;;;;;;3.40;1.33;;;;;;;17.83;100.00;99100.66;5048925;28;20051;-62
2023/06/27 01:18:50;;;;;;;2.63;1.20;;;;;;;17.76;100.00;99100.75;5024154;28;20077;-61
2023/06/27 01:21:21;;;;;;;2.42;1.05;;;;;;;17.69;100.00;99100.09;5034195;28;20096;-63
2023/06/27 01:23:58;;;;;;;4.10;1.23;;;;;;;17.67;100.00;99105.81;5034494;28;20037;-61
2023/06/27 01:26:24;;;;;;;4.00;1.45;;;;;;;17.66;100.00;99089.66;5033709;28;20148;-61
2023/06/27 01:28:50;;;;;;;5.80;1.40;;;;;;;17.64;100.00;99103.56;5050153;28;20030;-61
2023/06/27 01:32:03;;;;;;;7.85;1.48;;;;;;;17.62;100.00;99100.22;5028367;28;20028;-67
2023/06/27 01:34:36;;;;;;;2.30;1.30;;;;;;;17.56;100.00;99105.84;4938216;29;20460;-68
2023/06/27 01:37:15;;;;;;;2.83;1.20;;;;;;;17.53;100.00;99107.16;5008187;28;20088;-67
2023/06/27 01:39:46;;;;;;;2.83;1.15;;;;;;;17.45;100.00;99096.59;5029653;28;20033;-67
2023/06/27 01:42:17;;;;;;;3.17;1.30;;;;;;;17.37;100.00;99103.25;5031267;28;20072;-67
2023/06/27 01:44:47;;;;;;;2.50;1.20;;;;;;;17.33;100.00;99101.25;5032610;28;20025;-67
2023/06/27 01:47:14;;;;;;;4.28;1.35;;;;;;;17.25;100.00;99108.72;5042650;28;20036;-67
2023/06/27 01:49:39;;;;;;;6.63;1.40;;;;;;;17.20;100.00;99094.94;5027875;28;20409;-67
2023/06/27 01:52:06;;;;;;;4.82;1.20;;;;;;;17.06;100.00;99102.56;5025015;28;20026;-67
2023/06/27 01:54:31;;;;;;;4.90;1.42;;;;;;;16.97;100.00;99101.25;5022262;28;20025;-67
2023/06/27 01:56:57;;;;;;;5.47;1.17;;;;;;;16.92;100.00;99106.59;5033281;28;20381;-67
2023/06/27 01:59:22;;;;;;;4.75;1.30;;;;;;;16.88;100.00;99102.69;5027975;28;20474;-67
2023/06/27 02:01:47;;;;;;;3.45;1.80;;;;;;;16.83;100.00;99113.50;5052002;28;20017;-67
2023/06/27 02:04:13;;;;;;;5.93;1.60;;;;;;;16.79;100.00;99115.03;5050495;28;20112;-67
2023/06/27 02:06:38;;;;;;;3.67;1.30;;;;;;;16.77;100.00;99111.69;5037083;28;20081;-68
2023/06/27 02:09:05;;;;;;;3.78;1.75;;;;;;;16.76;100.00;99108.09;5032283;28;20451;-71
2023/06/27 02:11:30;;;;;;;5.85;1.70;;;;;;;16.75;100.00;99108.34;5047214;28;20029;-71
2023/06/27 02:13:55;;;;;;;6.68;1.60;;;;;;;16.73;100.00;99110.47;5055353;28;20036;-70
2023/06/27 02:16:20;;;;;;;3.72;1.55;;;;;;;16.69;100.00;99112.88;5032406;28;20109;-67
2023/06/27 02:18:46;;;;;;;4.05;1.52;;;;;;;16.64;100.00;99116.28;5032179;28;20047;-67
2023/06/27 02:21:11;;;;;;;3.28;1.13;;;;;;;16.58;100.00;99113.66;5023530;28;20104;-67
2023/06/27 02:23:37;;;;;;;5.00;1.50;;;;;;;16.53;100.00;99105.34;5041686;28;20109;-68
2023/06/27 02:26:03;;;;;;;4.40;1.30;;;;;;;16.50;100.00;99105.81;5031658;28;20056;-67
2023/06/27 02:28:29;;;;;;;4.07;1.30;;;;;;;16.41;100.00;99106.16;5032245;28;20014;-61
2023/06/27 02:30:54;;;;;;;3.70;1.30;;;;;;;16.35;100.00;99101.63;5031093;28;20473;-62
2023/06/27 02:33:20;;;;;;;4.07;1.27;;;;;;;16.32;100.00;99096.66;5032527;28;20480;-61
2023/06/27 02:38:13;;;;;;;5.55;1.80;;;;;;;16.14;100.00;99083.06;5124893;22;20434;-72
2023/06/27 02:40:38;;;;;;;4.25;1.35;;;;;;;16.16;100.00;99094.56;5071962;28;20029;-72
2023/06/27 02:43:05;;;;;;;3.60;1.48;;;;;;;16.23;100.00;99098.03;5063086;28;20067;-74
2023/06/27 02:45:30;;;;;;;4.07;1.50;;;;;;;16.23;100.00;99092.56;5081983;28;20020;-74
2023/06/27 02:47:55;;;;;;;2.05;1.17;;;;;;;16.17;100.00;99098.97;5068256;28;20386;-72
2023/06/27 02:50:21;;;;;;;4.78;1.55;;;;;;;16.13;100.00;99098.59;5032201;28;20022;-72
2023/06/27 02:52:46;;;;;;;2.38;1.35;;;;;;;16.03;100.00;99089.28;5033243;28;20044;-72
2023/06/27 02:55:11;;;;;;;2.42;1.38;;;;;;;15.99;100.00;99094.41;5041011;28;20482;-73
2023/06/27 02:57:37;;;;;;;6.47;1.30;;;;;;;16.03;100.00;99105.66;5046811;28;20021;-72
2023/06/27 03:00:03;;;;;;;7.10;1.33;;;;;;;15.93;100.00;99090.69;5039799;28;20108;-74
2023/06/27 03:02:29;;;;;;;2.65;1.40;;;;;;;15.86;100.00;99081.75;5048019;28;20534;-72
2023/06/27 03:04:54;;;;;;;3.45;1.40;;;;;;;16.00;100.00;99101.50;5046687;28;20072;-73
2023/06/27 03:07:19;;;;;;;4.80;1.27;;;;;;;15.86;100.00;99100.88;5051897;28;20024;-72
2023/06/27 03:09:45;;;;;;;5.57;1.40;;;;;;;15.83;100.00;99095.03;5047604;28;20120;-73
2023/06/27 03:12:10;;;;;;;4.38;1.25;;;;;;;15.82;100.00;99102.38;5048477;28;20498;-73
2023/06/27 03:14:35;;;;;;;6.70;1.52;;;;;;;15.73;100.00;99088.22;5051412;28;20029;-73
2023/06/27 03:17:00;;;;;;;2.42;1.23;;;;;;;15.80;100.00;99098.22;5039594;28;20502;-73
2023/06/27 03:19:26;;;;;;;2.63;1.20;;;;;;;15.81;100.00;99099.88;5051711;28;20087;-72
2023/06/27 03:21:51;;;;;;;3.60;1.52;;;;;;;15.72;100.00;99104.84;5043466;28;20426;-72
2023/06/27 03:24:16;;;;;;;5.95;1.75;;;;;;;15.61;100.00;99094.66;5051478;28;20051;-73
2023/06/27 03:26:41;;;;;;;3.40;1.23;;;;;;;15.74;100.00;99110.88;5046254;28;20141;-72
2023/06/27 03:29:07;;;;;;;5.88;1.40;;;;;;;15.69;100.00;99116.19;5057459;28;20021;-72
2023/06/27 03:31:32;;;;;;;3.08;1.30;;;;;;;15.64;100.00;99099.63;5046889;28;20031;-72
2023/06/27 03:33:59;;;;;;;3.75;1.40;;;;;;;15.66;100.00;99116.63;5041971;28;20024;-73
2023/06/27 03:36:24;;;;;;;8.65;1.80;;;;;;;15.67;100.00;99112.84;5049907;28;20112;-73
2023/06/27 03:38:52;;;;;;;3.55;1.38;;;;;;;15.73;100.00;99111.94;5051539;28;20072;-72
2023/06/27 03:41:17;;;;;;;6.85;1.63;;;;;;;15.91;100.00;99127.47;5051212;28;20025;-73
2023/06/27 03:43:43;;;;;;;4.75;1.42;;;;;;;15.87;100.00;99129.81;5046075;28;20112;-74
2023/06/27 03:46:12;;;;;;;5.72;1.25;;;;;;;15.89;100.00;99124.94;5039634;28;20032;-67
2023/06/27 03:48:37;;;;;;;4.80;1.48;;;;;;;15.97;100.00;99123.81;5041364;28;20033;-69
2023/06/27 03:51:03;;;;;;;4.85;1.42;;;;;;;15.96;100.00;99120.25;5046477;28;20083;-71
2023/06/27 03:53:28;;;;;;;5.65;1.60;;;;;;;16.05;100.00;99114.47;5047511;28;20056;-71
2023/06/27 03:55:54;;;;;;;8.85;1.50;;;;;;;16.05;100.00;99112.56;5048091;28;20546;-71
2023/06/27 03:58:19;;;;;;;4.30;1.48;;;;;;;16.01;100.00;99114.09;5052800;28;20037;-71
2023/06/27 04:00:44;;;;;;;3.20;1.33;;;;;;;15.99;100.00;99119.78;5046625;28;20055;-72
2023/06/27 04:03:09;;;;;;;3.70;1.35;;;;;;;16.10;100.00;99140.00;5059504;28;20032;-73
2023/06/27 04:05:35;;;;;;;2.78;1.10;;;;;;;16.15;100.00;99133.84;5049382;28;20359;-72
2023/06/27 04:08:00;;;;;;;3.90;1.30;;;;;;;16.03;100.00;99108.41;5056535;28;20017;-72
2023/06/27 04:10:25;;;;;;;2.72;1.23;;;;;;;16.09;100.00;99123.88;5049742;28;20098;-72
2023/06/27 04:12:50;;;;;;;2.10;1.20;;;;;;;16.09;100.00;99118.41;5042835;28;20055;-71
2023/06/27 04:15:16;;;;;;;5.70;1.58;;;;;;;16.04;100.00;99121.81;5047314;28;20033;-71
2023/06/27 04:17:41;;;;;;;7.82;1.70;;;;;;;16.10;100.00;99134.53;5048641;28;20025;-71
2023/06/27 04:20:07;;;;;;;5.03;1.60;;;;;;;16.09;100.00;99119.25;5049603;28;20479;-70
2023/06/27 04:22:32;;;;;;;10.38;1.80;;;;;;;16.17;100.00;99123.53;5042455;28;20052;-72
2023/06/27 04:24:58;;;;;;;4.85;1.90;;;;;;;16.26;100.00;99124.88;5054823;28;20025;-66
2023/06/27 04:27:23;;;;;;;4.18;1.50;;;;;;;16.22;100.00;99123.69;5047801;28;20078;-70
2023/06/27 04:29:48;;;;;;;6.30;1.65;;;;;;;16.19;100.00;99122.25;5051980;28;20029;-69
2023/06/27 04:32:13;;;;;;;2.88;1.48;;;;;;;16.32;100.00;99134.00;5050379;28;20484;-69
2023/06/27 04:34:39;;;;;;;5.93;1.52;;;;;;;16.31;100.00;99138.66;5055263;28;20029;-69
2023/06/27 04:37:04;;;;;;;7.45;1.63;;;;;;;16.42;100.00;99140.56;5046011;28;20044;-67
2023/06/27 04:39:30;;;;;;;4.95;1.80;;;;;;;16.34;100.00;99137.34;5055855;28;20304;-69
2023/06/27 04:41:58;;;;;;;3.88;1.33;;;;;;;16.36;100.00;99162.53;5051898;28;20018;-70
2023/06/27 04:44:23;;;;;;;4.88;1.60;;;;;;;16.37;100.00;99159.59;5044169;28;20033;-69
2023/06/27 04:46:49;;;;;;;4.50;1.73;;;;;;;16.34;100.00;99148.28;5046867;28;20713;-67
2023/06/27 04:49:14;;;;;;;3.90;1.20;;;;;;;16.38;100.00;99165.88;5050019;28;20067;-68
2023/06/27 04:51:40;;;;;;;7.50;1.63;;;;;;;16.35;100.00;99155.41;5042911;28;20024;-72
2023/06/27 04:54:05;;;;;;;10.93;1.77;;;;;;;16.24;100.00;99143.38;5048504;28;20024;-69
2023/06/27 04:56:30;;;;;;;8.10;1.77;;;;;;;16.37;100.00;99153.25;5049503;28;20028;-68
2023/06/27 04:58:56;;;;;;;4.50;1.58;;;;;;;16.39;100.00;99146.50;5039621;28;20048;-71
2023/06/27 05:01:21;;;;;;;7.18;1.70;;;;;;;16.43;100.00;99147.72;5045137;28;20107;-69
2023/06/27 05:03:46;;;;;;;7.50;1.52;;;;;;;16.58;100.00;99143.72;5048447;28;20041;-72
2023/06/27 05:06:11;;;;;;;3.78;1.40;;;;;;;16.77;100.00;99153.53;5056575;28;20082;-68
2023/06/27 05:08:37;;;;;;;5.50;1.60;;;;;;;16.94;100.00;99159.13;5045318;28;20066;-68
2023/06/27 05:11:03;;;;;;;6.35;1.52;;;;;;;17.04;100.00;99153.91;5055534;28;20021;-68
2023/06/27 05:13:28;;;;;;;4.93;1.75;;;;;;;17.12;100.00;99152.72;5042143;28;20104;-68
2023/06/27 05:15:53;;;;;;;3.38;1.50;;;;;;;17.22;100.00;99147.50;5049010;28;20116;-69
2023/06/27 05:18:19;;;;;;;2.10;1.27;;;;;;;17.48;100.00;99159.03;5045096;28;20025;-68
2023/06/27 05:20:45;;;;;;;5.97;1.77;;;;;;;17.74;100.00;99158.50;5043397;28;20043;-65
2023/06/27 05:23:11;;;;;;;4.45;1.60;;;;;;;18.10;100.00;99142.84;5039166;28;20421;-69
2023/06/27 05:25:37;;;;;;;9.75;1.55;;;;;;;18.39;100.00;99137.31;5046883;28;20664;-68
2023/06/27 05:28:02;;;;;;;13.63;2.03;;;;;;;18.51;100.00;99140.84;5045705;28;20383;-69
2023/06/27 05:30:28;;;;;;;5.85;1.38;;;;;;;18.65;100.00;99144.09;5039869;28;20036;-70
2023/06/27 05:32:55;;;;;;;4.50;1.63;;;;;;;18.72;100.00;99157.66;5041914;28;20087;-67
2023/06/27 05:35:21;;;;;;;5.93;1.42;;;;;;;18.69;100.00;99153.50;5034046;28;20364;-79
2023/06/27 05:37:46;;;;;;;18.05;1.70;;;;;;;18.68;100.00;99146.34;5045625;28;20175;-76
2023/06/27 05:40:11;;;;;;;8.50;1.60;;;;;;;18.95;100.00;99157.53;5037537;28;20037;-75
2023/06/27 05:42:37;;;;;;;6.03;1.40;;;;;;;19.20;100.00;99159.00;5049091;28;20162;-81
2023/06/27 05:45:03;;;;;;;10.63;1.90;;;;;;;19.07;100.00;99151.09;5067489;28;20023;-79
2023/06/27 05:47:28;;;;;;;7.80;1.52;;;;;;;19.23;100.00;99142.88;5051113;28;20033;-74
2023/06/27 05:49:53;;;;;;;12.25;2.05;;;;;;;19.57;100.00;99141.97;5050347;28;20017;-82
2023/06/27 05:52:19;;;;;;;7.15;1.55;;;;;;;20.03;100.00;99151.63;5053050;28;20025;-75
2023/06/27 05:54:44;;;;;;;4.13;1.25;;;;;;;20.43;100.00;99149.59;5040676;28;20029;-79
2023/06/27 05:57:10;;;;;;;2.10;1.25;;;;;;;20.85;100.00;99159.91;5045348;28;21759;-78
2023/06/27 05:59:35;;;;;;;6.75;1.50;;;;;;;21.16;100.00;99141.72;5042233;28;20025;-72
2023/06/27 06:02:00;;;;;;;4.85;1.52;;;;;;;21.09;100.00;99135.63;5042527;28;20024;-72
2023/06/27 06:04:26;;;;;;;2.90;1.40;;;;;;;21.28;100.00;99149.81;5041497;28;20091;-72
2023/06/27 06:06:51;;;;;;;6.47;2.03;;;;;;;21.13;100.00;99136.75;5066168;28;20550;-72
2023/06/27 06:09:16;;;;;;;4.03;1.25;;;;;;;21.33;100.00;99144.34;5053035;28;20033;-72
2023/06/27 06:11:41;;;;;;;4.30;1.35;;;;;;;21.35;100.00;99153.13;5041140;28;20021;-71
2023/06/27 06:14:07;;;;;;;6.13;1.52;;;;;;;21.54;100.00;99150.81;5044340;28;20037;-75
2023/06/27 06:16:33;;;;;;;4.47;1.65;;;;;;;21.27;100.00;99150.88;5048070;28;20025;-74
2023/06/27 06:19:03;;;;;;;6.10;1.27;;;;;;;21.93;100.00;99148.53;5045006;28;20037;-74
2023/06/27 06:21:29;;;;;;;5.13;1.30;;;;;;;22.18;100.00;99130.41;5046541;28;20030;-74
2023/06/27 06:23:55;;;;;;;2.55;1.00;;;;;;;22.21;100.00;99146.44;5039895;28;20062;-78
2023/06/27 06:26:20;;;;;;;5.47;1.20;;;;;;;22.53;91.63;99130.53;5041862;28;20029;-78
2023/06/27 06:28:46;;;;;;;5.95;1.27;;;;;;;23.11;87.08;99151.53;5061042;28;20040;-76
2023/06/27 06:31:11;;;;;;;2.65;1.08;;;;;;;23.28;82.37;99148.47;5065198;28;20029;-76
2023/06/27 06:33:40;;;;;;;2.72;1.10;;;;;;;23.60;81.56;99148.94;5066755;28;20131;-77
2023/06/27 06:36:06;;;;;;;3.90;1.05;;;;;;;23.95;80.50;99146.41;5033461;28;20128;-70
2023/06/27 06:38:32;;;;;;;7.50;1.52;;;;;;;24.12;79.00;99152.38;5042695;28;20067;-70
2023/06/27 06:40:57;;;;;;;2.58;1.30;;;;;;;24.56;77.19;99154.38;5036112;28;20029;-69
2023/06/27 06:43:25;;;;;;;4.50;1.30;;;;;;;24.93;74.93;99167.66;5039330;28;20072;-69
2023/06/27 06:45:52;;;;;;;4.40;0.80;;;;;;;25.30;72.37;99148.81;5059888;28;20393;-70
2023/06/27 06:48:19;;;;;;;4.88;1.27;;;;;;;25.42;69.52;99152.03;5041443;28;20035;-70
2023/06/27 06:50:44;;;;;;;5.57;1.20;;;;;;;25.30;68.15;99154.34;5044807;28;20385;-75
2023/06/27 06:53:09;;;;;;;13.27;1.83;;;;;;;25.81;66.50;99151.03;5042294;28;20041;-72
2023/06/27 06:55:35;;;;;;;3.53;0.88;;;;;;;26.48;60.50;99151.00;5037655;28;20024;-76
2023/06/27 06:58:00;;;;;;;9.75;1.00;;;;;;;27.40;56.54;99141.19;5037248;28;20021;-75
2023/06/27 07:00:26;;;;;;;20.02;1.42;;;;;;;28.32;54.33;99139.38;5056580;28;20060;-75
2023/06/27 07:02:52;;;;;;;2.55;1.00;;;;;;;28.62;53.53;99145.38;5060820;28;20085;-79
2023/06/27 07:05:17;;;;;;;3.97;1.00;;;;;;;29.43;51.23;99152.84;5045730;28;20029;-77
2023/06/27 07:07:42;;;;;;;5.13;0.95;;;;;;;31.07;47.13;99126.44;5044053;28;20025;-74
2023/06/27 07:10:08;;;;;;;3.90;1.10;;;;;;;31.07;46.05;99148.78;5039850;28;20025;-74
2023/06/27 07:12:33;;;;;;;3.10;1.20;;;;;;;30.14;46.81;99145.28;5042293;28;20101;-78
2023/06/27 07:14:59;;;;;;;7.53;1.33;;;;;;;29.22;49.00;99149.78;5061754;28;20029;-79
2023/06/27 07:17:24;;;;;;;4.90;1.10;;;;;;;28.60;50.13;99154.03;5049732;28;20039;-80
2023/06/27 07:19:49;;;;;;;2.72;0.98;;;;;;;27.72;50.70;99156.19;5061939;28;20132;-76
2023/06/27 07:22:15;;;;;;;11.23;1.33;;;;;;;26.75;51.50;99155.06;5042211;28;20043;-77
2023/06/27 07:24:40;;;;;;;9.63;1.00;;;;;;;25.89;53.46;99144.88;5045450;28;20060;-75
2023/06/27 07:27:06;;;;;;;5.40;0.90;;;;;;;26.18;52.92;99163.38;5058024;28;20028;-77
2023/06/27 07:29:31;;;;;;;11.27;1.20;;;;;;;26.34;51.98;99150.94;5041531;28;20032;-79
2023/06/27 07:31:57;;;;;;;3.67;0.80;;;;;;;26.00;52.17;99143.63;5062220;28;20028;-80
2023/06/27 07:34:22;;;;;;;3.78;0.95;;;;;;;25.22;54.06;99141.13;5048731;28;20025;-75
2023/06/27 07:36:47;;;;;;;5.65;1.08;;;;;;;25.27;56.28;99166.84;5039270;28;20083;-74
2023/06/27 07:39:13;;;;;;;4.25;1.00;;;;;;;24.75;55.95;99156.44;5048753;28;20047;-76
2023/06/27 07:41:38;;;;;;;1.80;0.82;;;;;;;25.49;55.40;99168.28;5034678;28;20458;-80
2023/06/27 07:44:04;;;;;;;3.35;0.80;;;;;;;25.61;54.92;99171.50;5063314;28;20032;-73
2023/06/27 07:46:29;;;;;;;2.47;0.60;;;;;;;25.64;53.84;99157.03;5056753;28;20506;-77
2023/06/27 07:48:58;;;;;;;3.97;1.10;;;;;;;25.15;55.26;99163.59;5040968;28;20479;-75
2023/06/27 07:51:24;;;;;;;4.63;1.00;;;;;;;25.40;55.30;99181.13;5046674;28;21083;-73
2023/06/27 07:53:49;;;;;;;1.73;0.85;;;;;;;25.31;54.20;99156.03;5040184;28;20446;-73
2023/06/27 07:56:15;;;;;;;3.17;1.00;;;;;;;25.26;54.24;99158.84;5041449;28;20033;-73
2023/06/27 07:58:40;;;;;;;4.93;0.98;;;;;;;25.60;52.60;99164.31;5035220;28;20382;-74
2023/06/27 08:01:05;;;;;;;1.42;0.70;;;;;;;26.36;52.97;99147.88;5049938;28;20479;-74
2023/06/27 08:03:31;;;;;;;2.97;0.80;;;;;;;26.51;51.13;99149.56;5035953;28;20380;-76
2023/06/27 08:05:56;;;;;;;4.90;1.10;;;;;;;26.40;50.19;99171.09;5036936;28;20068;-69
2023/06/27 08:08:21;;;;;;;4.47;1.10;;;;;;;26.83;50.31;99158.00;5056194;28;20411;-69
2023/06/27 08:10:47;;;;;;;2.78;0.80;;;;;;;26.65;50.13;99150.53;5041376;28;20371;-77
2023/06/27 08:13:12;;;;;;;1.40;0.77;;;;;;;26.12;49.60;99157.06;5047476;28;20459;-76
2023/06/27 08:15:37;;;;;;;6.93;0.82;;;;;;;25.72;51.82;99142.53;5041894;28;20029;-77
2023/06/27 08:18:03;;;;;;;3.78;1.00;;;;;;;25.71;52.22;99151.16;5055574;28;20037;-77
2023/06/27 08:20:28;;;;;;;2.65;0.80;;;;;;;26.23;50.90;99146.66;5039767;28;20440;-76
2023/06/27 08:22:53;;;;;;;2.72;0.85;;;;;;;26.64;48.24;99134.97;5032297;28;20516;-77
2023/06/27 08:25:19;;;;;;;3.67;0.90;;;;;;;26.59;48.13;99146.16;5056303;28;20035;-77
2023/06/27 08:27:44;;;;;;;4.28;1.00;;;;;;;26.69;48.43;99117.41;5065909;28;20021;-76
2023/06/27 08:30:09;;;;;;;3.42;0.98;;;;;;;27.41;48.22;99139.28;5058627;28;20090;-77
2023/06/27 08:32:35;;;;;;;2.75;0.98;;;;;;;27.89;47.27;99144.47;5038781;28;20025;-76
2023/06/27 08:35:04;;;;;;;3.00;0.80;;;;;;;28.38;47.04;99124.19;5034700;28;20138;-76
2023/06/27 08:37:29;;;;;;;3.25;0.98;;;;;;;27.03;44.51;99119.91;5045703;28;20052;-78
2023/06/27 08:39:54;;;;;;;3.35;0.80;;;;;;;27.79;45.24;99133.50;5046359;28;20034;-72
2023/06/27 08:42:19;;;;;;;2.17;0.90;;;;;;;28.12;46.36;99132.28;5034812;28;20108;-76
2023/06/27 08:44:45;;;;;;;2.70;0.60;;;;;;;28.63;45.12;99131.13;5046967;28;20025;-80
2023/06/27 08:47:12;;;;;;;3.58;0.70;;;;;;;27.75;43.38;99109.13;5053123;28;20105;-78
2023/06/27 08:49:40;;;;;;;3.70;1.00;;;;;;;28.65;43.09;99130.00;5040781;28;20025;-70
2023/06/27 08:52:11;;;;;;;1.48;0.77;;;;;;;29.48;43.79;99117.28;5033712;28;20025;-74
2023/06/27 08:54:39;;;;;;;2.70;0.90;;;;;;;30.39;42.57;99128.91;5057528;28;20028;-72
2023/06/27 08:57:06;;;;;;;2.03;0.70;;;;;;;30.57;42.41;99113.81;5044311;28;20029;-72
2023/06/27 08:59:35;;;;;;;2.40;0.50;;;;;;;32.50;38.31;99123.22;5041189;28;20033;-73
2023/06/27 09:02:01;;;;;;;;;;;;;;;34.64;36.00;99117.72;5051506;28;20056;-73
2023/06/27 09:04:27;;;;;;;2.60;0.90;;;;;;;37.15;33.14;99110.59;5050720;28;19917;-71
2023/06/27 09:06:54;;;;;;;3.35;0.70;;;;;;;34.99;32.62;99119.91;5047510;28;20057;-70
2023/06/27 09:09:21;;;;;;;3.47;0.90;;;;;;;33.88;33.62;99127.72;5033818;28;20097;-71
2023/06/27 09:11:48;;;;;;;3.25;0.90;;;;;;;35.44;32.12;99113.09;5043539;28;20043;-71
2023/06/27 09:14:13;;;;;;;5.50;0.77;;;;;;;36.88;30.07;99106.03;5048303;28;20032;-69
2023/06/27 09:16:40;;;;;;;1.58;0.80;;;;;;;38.05;30.48;99112.19;5039244;28;20570;-72
2023/06/27 09:19:05;;;;;;;2.65;0.73;;;;;;;38.00;29.82;99107.69;5044520;28;20388;-72
2023/06/27 09:21:34;;;;;;;5.18;0.90;;;;;;;36.64;29.64;99096.69;5032668;28;20079;-72
2023/06/27 09:24:04;;;;;;;;;;;;;;;36.48;29.15;99099.53;5047701;28;20040;-72
2023/06/27 09:26:29;;;;;;;2.97;0.70;;;;;;;35.28;30.49;99105.47;5038151;28;19948;-72
2023/06/27 09:28:54;;;;;;;2.23;0.73;;;;;;;37.32;30.63;99100.03;5038645;28;20032;-72
2023/06/27 09:31:21;;;;;;;1.90;0.63;;;;;;;38.40;29.56;99089.28;5049639;28;20280;-72
2023/06/27 09:33:48;;;;;;;1.35;0.70;;;;;;;39.00;28.88;99094.91;5049134;28;20307;-72
2023/06/27 09:36:31;;;;;;;2.22;0.80;;;;;;;39.32;28.38;99091.59;5041501;28;20052;-72
2023/06/27 09:38:59;;;;;;;5.22;0.80;;;;;;;37.78;28.38;99108.50;5046534;28;20030;-72
2023/06/27 09:41:39;;;;;;;1.95;0.75;;;;;;;37.47;28.28;99088.63;5039933;28;20479;-72
2023/06/27 09:44:13;;;;;;;2.92;0.73;;;;;;;38.45;26.98;99103.09;5039010;28;20151;-72
2023/06/27 09:46:40;;;;;;;2.80;0.70;;;;;;;37.12;28.23;99100.06;5045434;28;20098;-72
2023/06/27 09:49:07;;;;;;;1.70;1.00;;;;;;;37.05;29.02;99095.13;5042074;28;20024;-72
2023/06/27 09:51:32;;;;;;;3.72;0.70;;;;;;;37.99;27.70;99100.41;5049599;28;20028;-72
2023/06/27 09:53:58;;;;;;;1.33;0.57;;;;;;;40.15;27.24;99097.97;5063635;28;20152;-72
2023/06/27 09:56:33;;;;;;;3.15;0.70;;;;;;;40.56;27.26;99095.78;5037598;28;20554;-72
2023/06/27 09:59:12;;;;;;;2.05;0.60;;;;;;;41.36;26.26;99100.50;5060129;28;20033;-72
2023/06/27 10:01:40;;;;;;;3.05;0.55;;;;;;;40.69;25.79;99091.41;5044580;28;20029;-72
2023/06/27 10:04:07;;;;;;;1.95;0.60;;;;;;;39.36;26.07;99095.31;5039457;28;20032;-72
2023/06/27 10:06:33;;;;;;;1.83;0.63;;;;;;;38.48;27.58;99096.69;5052295;28;20029;-72
2023/06/27 10:08:59;;;;;;;1.27;0.68;;;;;;;39.42;27.33;99088.06;5048115;28;20037;-72
2023/06/27 10:11:25;;;;;;;1.30;0.70;;;;;;;38.20;27.83;99082.97;5052147;28;20024;-72
2023/06/27 10:13:51;;;;;;;2.92;0.80;;;;;;;36.75;29.37;99096.91;5039608;28;20025;-72
2023/06/27 10:16:18;;;;;;;3.03;0.80;;;;;;;35.32;30.50;99091.50;5037787;28;20036;-72
2023/06/27 10:18:44;;;;;;;1.95;0.90;;;;;;;36.74;29.79;99096.09;5041872;28;20476;-72
2023/06/27 10:21:10;;;;;;;1.45;0.60;;;;;;;36.74;29.79;99078.38;5032979;28;20053;-72
2023/06/27 10:23:38;;;;;;;3.50;0.75;;;;;;;36.64;29.34;99072.13;5043259;28;20508;-72
2023/06/27 10:26:04;;;;;;;5.03;1.05;;;;;;;35.76;29.17;99069.75;5052783;28;20039;-72
2023/06/27 10:28:32;;;;;;;2.88;0.93;;;;;;;35.51;29.13;99069.09;5051672;28;20025;-72
2023/06/27 10:30:58;;;;;;;2.65;0.90;;;;;;;36.42;29.38;99084.13;5049143;28;20104;-72
2023/06/27 10:33:28;;;;;;;1.83;0.98;;;;;;;36.06;29.27;99076.84;5037074;28;20119;-71
2023/06/27 10:36:05;;;;;;;2.42;1.10;;;;;;;34.80;30.23;99092.47;5051936;28;20389;-72
2023/06/27 10:38:45;;;;;;;2.88;0.82;;;;;;;35.60;30.57;99085.00;5046946;28;20115;-72
2023/06/27 10:41:12;;;;;;;3.38;0.85;;;;;;;35.72;30.34;99082.09;5043556;28;20036;-71
2023/06/27 10:43:48;;;;;;;4.60;1.02;;;;;;;34.72;31.23;99093.44;5046007;28;20114;-72
2023/06/27 10:46:20;;;;;;;3.67;0.90;;;;;;;33.85;33.23;99101.16;5065284;28;20025;-72
2023/06/27 10:48:48;;;;;;;2.45;0.98;;;;;;;33.29;33.32;99098.06;5035797;28;20039;-72
2023/06/27 10:51:19;;;;;;;2.10;1.00;;;;;;;32.92;33.71;99090.34;5050582;28;20029;-71
2023/06/27 10:54:06;;;;;;;1.98;0.82;;;;;;;32.52;34.85;99101.28;5052258;28;20032;-72
2023/06/27 10:56:33;;;;;;;3.75;0.82;;;;;;;32.80;33.69;99109.09;5051748;28;20431;-72
2023/06/27 10:58:59;;;;;;;2.15;0.85;;;;;;;33.67;33.61;99089.38;5045443;28;20933;-72
2023/06/27 11:01:25;;;;;;;2.33;0.90;;;;;;;34.06;32.51;99098.28;5042355;28;20029;-71
2023/06/27 11:03:56;;;;;;;1.40;0.70;;;;;;;33.27;34.02;99114.41;5046983;28;20044;-72
2023/06/27 11:06:38;;;;;;;4.53;1.27;;;;;;;33.67;33.09;99083.78;5052000;28;20028;-72
2023/06/27 11:09:03;;;;;;;1.90;0.63;;;;;;;33.87;32.52;99086.78;5039078;28;20044;-72
2023/06/27 11:11:29;;;;;;;4.13;1.35;;;;;;;32.69;32.57;99094.69;5039632;28;20037;-71
2023/06/27 11:14:07;;;;;;;1.67;0.80;;;;;;;33.61;32.79;99099.19;5041824;28;20081;-72
2023/06/27 11:16:36;;;;;;;2.60;0.80;;;;;;;32.84;33.60;99094.06;5044046;28;20025;-72
2023/06/27 11:19:02;;;;;;;2.20;1.00;;;;;;;33.42;33.23;99088.50;5036449;28;20021;-72
2023/06/27 11:21:28;;;;;;;1.85;0.82;;;;;;;32.16;33.26;99094.28;5040651;28;20032;-72
2023/06/27 11:24:00;;;;;;;2.55;1.00;;;;;;;31.61;34.77;99079.25;5043989;28;20031;-72
2023/06/27 11:26:27;;;;;;;5.22;1.00;;;;;;;31.29;35.49;99096.66;5060140;28;20043;-72
2023/06/27 11:28:52;;;;;;;1.75;0.77;;;;;;;32.17;34.55;99097.88;5057589;28;20230;-72